EIN65W EDDF-EIDW
Flight info
| Callsign | EIN65W |
|---|---|
| Flight time | 1h 42m |
| Altitude | 36000 |
| Route | OBOKA3W OBOKA Z28 DIBIR DCT BUDIP DCT RAVLO Y70 OTBED L60 PENIL UL28 LELDO M145 BAGSO BAGSO4L |
| Aircraft | A320/M-SDE3FGHIRWY/LB1 |
Departure
| Time | 2026-05-07 10:48 |
|---|---|
| Airport | Frankfurt Main Airport (EDDF) |
Arrival
| Time | 2026-05-07 12:30 |
|---|---|
| Airport | Dublin Airport (EIDW) |
| Time | Latitude | Longitude | Altitude | Speed | Heading |
|---|---|---|---|---|---|
| 2026-05-07 09:56 | 50.04878 | 8.59048 | 365 ft | 0 kts | 340° |
| 2026-05-07 10:35 | 50.04870 | 8.59052 | 369 ft | 4 kts | 340° |
| 2026-05-07 10:35 | 50.04844 | 8.59067 | 366 ft | 4 kts | 340° |
| 2026-05-07 10:35 | 50.04819 | 8.59081 | 369 ft | 4 kts | 340° |
| 2026-05-07 10:35 | 50.04810 | 8.59086 | 369 ft | 0 kts | 340° |
| 2026-05-07 10:40 | 50.04811 | 8.59085 | 368 ft | 0 kts | 336° |
| 2026-05-07 10:40 | 50.04812 | 8.59066 | 371 ft | 1 kts | 263° |
| 2026-05-07 10:40 | 50.04803 | 8.59043 | 368 ft | 7 kts | 241° |
| 2026-05-07 10:41 | 50.04772 | 8.58954 | 372 ft | 11 kts | 245° |
| 2026-05-07 10:41 | 50.04757 | 8.58891 | 371 ft | 5 kts | 250° |
| 2026-05-07 10:41 | 50.04756 | 8.58887 | 370 ft | 0 kts | 250° |
| 2026-05-07 10:43 | 50.04740 | 8.58823 | 371 ft | 10 kts | 249° |
| 2026-05-07 10:43 | 50.04694 | 8.58772 | 372 ft | 6 kts | 191° |
| 2026-05-07 10:44 | 50.04626 | 8.58752 | 370 ft | 14 kts | 194° |
| 2026-05-07 10:44 | 50.04551 | 8.58675 | 371 ft | 12 kts | 218° |
| 2026-05-07 10:44 | 50.04492 | 8.58600 | 371 ft | 8 kts | 225° |
| 2026-05-07 10:44 | 50.04483 | 8.58570 | 370 ft | 0 kts | 250° |
| 2026-05-07 10:47 | 50.04462 | 8.58482 | 370 ft | 33 kts | 250° |
| 2026-05-07 10:47 | 50.04298 | 8.57793 | 362 ft | 102 kts | 250° |
| 2026-05-07 10:47 | 50.04103 | 8.56970 | 366 ft | 138 kts | 249° |
| 2026-05-07 10:47 | 50.03590 | 8.54811 | 746 ft | 164 kts | 251° |
| 2026-05-07 10:48 | 50.03185 | 8.53172 | 1454 ft | 162 kts | 251° |
| 2026-05-07 10:48 | 50.02786 | 8.51508 | 2002 ft | 172 kts | 252° |
| 2026-05-07 10:48 | 50.02175 | 8.49771 | 2291 ft | 197 kts | 232° |
| 2026-05-07 10:48 | 50.01461 | 8.48786 | 2572 ft | 208 kts | 214° |
| 2026-05-07 10:49 | 50.00086 | 8.47984 | 3195 ft | 215 kts | 189° |
| 2026-05-07 10:49 | 49.98600 | 8.47653 | 3909 ft | 217 kts | 189° |
| 2026-05-07 10:49 | 49.97098 | 8.47321 | 4626 ft | 219 kts | 189° |
| 2026-05-07 10:49 | 49.95608 | 8.46865 | 5269 ft | 225 kts | 198° |
| 2026-05-07 10:50 | 49.94026 | 8.46138 | 5619 ft | 247 kts | 198° |
| 2026-05-07 10:50 | 49.92409 | 8.45128 | 6279 ft | 253 kts | 213° |
| 2026-05-07 10:50 | 49.91030 | 8.43439 | 7027 ft | 254 kts | 230° |
| 2026-05-07 10:50 | 49.90008 | 8.41217 | 7808 ft | 254 kts | 242° |
| 2026-05-07 10:51 | 49.89148 | 8.38811 | 8621 ft | 255 kts | 250° |
| 2026-05-07 10:51 | 49.88685 | 8.36180 | 9427 ft | 256 kts | 264° |
| 2026-05-07 10:51 | 49.88701 | 8.33339 | 9909 ft | 269 kts | 276° |
| 2026-05-07 10:51 | 49.88873 | 8.30398 | 10414 ft | 283 kts | 276° |
| 2026-05-07 10:52 | 49.89218 | 8.27275 | 10625 ft | 306 kts | 288° |
| 2026-05-07 10:52 | 49.90178 | 8.24265 | 11087 ft | 318 kts | 304° |
| 2026-05-07 10:52 | 49.91504 | 8.21475 | 11706 ft | 324 kts | 307° |
| 2026-05-07 10:52 | 49.92856 | 8.18640 | 12405 ft | 329 kts | 307° |
| 2026-05-07 10:53 | 49.94290 | 8.15867 | 13144 ft | 331 kts | 314° |
| 2026-05-07 10:53 | 49.96008 | 8.13465 | 13843 ft | 335 kts | 320° |
| 2026-05-07 10:53 | 49.97790 | 8.11091 | 14450 ft | 339 kts | 320° |
| 2026-05-07 10:53 | 49.99584 | 8.08697 | 15096 ft | 341 kts | 319° |
| 2026-05-07 10:54 | 50.01373 | 8.06309 | 15669 ft | 346 kts | 319° |
| 2026-05-07 10:54 | 50.03204 | 8.03861 | 16301 ft | 348 kts | 319° |
| 2026-05-07 10:54 | 50.05049 | 8.01388 | 16902 ft | 352 kts | 319° |
| 2026-05-07 10:54 | 50.06914 | 7.98881 | 17494 ft | 356 kts | 319° |
| 2026-05-07 10:55 | 50.08798 | 7.96345 | 18065 ft | 360 kts | 319° |
| 2026-05-07 10:55 | 50.10703 | 7.93783 | 18661 ft | 362 kts | 319° |
| 2026-05-07 10:55 | 50.12615 | 7.91212 | 19201 ft | 365 kts | 319° |
| 2026-05-07 10:55 | 50.14543 | 7.88615 | 19711 ft | 368 kts | 319° |
| 2026-05-07 10:56 | 50.16485 | 7.85992 | 20279 ft | 370 kts | 319° |
| 2026-05-07 10:56 | 50.18433 | 7.83357 | 20826 ft | 372 kts | 319° |
| 2026-05-07 10:56 | 50.20397 | 7.80700 | 21323 ft | 376 kts | 319° |
| 2026-05-07 10:56 | 50.22379 | 7.78019 | 21836 ft | 379 kts | 319° |
| 2026-05-07 10:57 | 50.24396 | 7.75333 | 22364 ft | 381 kts | 322° |
| 2026-05-07 10:57 | 50.26623 | 7.73073 | 22855 ft | 385 kts | 332° |
| 2026-05-07 10:57 | 50.29075 | 7.71336 | 23335 ft | 388 kts | 336° |
| 2026-05-07 10:57 | 50.31554 | 7.69652 | 23809 ft | 391 kts | 336° |
| 2026-05-07 10:58 | 50.34056 | 7.67945 | 24242 ft | 392 kts | 336° |
| 2026-05-07 10:58 | 50.36557 | 7.66233 | 24650 ft | 395 kts | 336° |
| 2026-05-07 10:58 | 50.39086 | 7.64501 | 25052 ft | 397 kts | 336° |
| 2026-05-07 10:58 | 50.41631 | 7.62756 | 25412 ft | 401 kts | 336° |
| 2026-05-07 10:59 | 50.44189 | 7.60997 | 25800 ft | 403 kts | 336° |
| 2026-05-07 10:59 | 50.46723 | 7.59248 | 26177 ft | 404 kts | 336° |
| 2026-05-07 10:59 | 50.49302 | 7.57464 | 26545 ft | 406 kts | 336° |
| 2026-05-07 10:59 | 50.51896 | 7.55667 | 26889 ft | 408 kts | 336° |
| 2026-05-07 11:00 | 50.54503 | 7.53860 | 27207 ft | 411 kts | 335° |
| 2026-05-07 11:00 | 50.57028 | 7.51725 | 27562 ft | 413 kts | 327° |
| 2026-05-07 11:00 | 50.59440 | 7.49256 | 27945 ft | 413 kts | 327° |
| 2026-05-07 11:00 | 50.61851 | 7.46788 | 28332 ft | 415 kts | 327° |
| 2026-05-07 11:01 | 50.64283 | 7.44298 | 28600 ft | 419 kts | 327° |
| 2026-05-07 11:01 | 50.66727 | 7.41789 | 28880 ft | 422 kts | 327° |
| 2026-05-07 11:01 | 50.69195 | 7.39252 | 29162 ft | 425 kts | 327° |
| 2026-05-07 11:01 | 50.71676 | 7.36696 | 29452 ft | 427 kts | 326° |
| 2026-05-07 11:02 | 50.74009 | 7.33806 | 29772 ft | 429 kts | 316° |
| 2026-05-07 11:02 | 50.76035 | 7.30331 | 30070 ft | 430 kts | 308° |
| 2026-05-07 11:02 | 50.77772 | 7.26488 | 30343 ft | 431 kts | 305° |
| 2026-05-07 11:02 | 50.79499 | 7.22601 | 30579 ft | 433 kts | 305° |
| 2026-05-07 11:03 | 50.81236 | 7.18703 | 30813 ft | 434 kts | 305° |
| 2026-05-07 11:03 | 50.82979 | 7.14802 | 31048 ft | 436 kts | 305° |
| 2026-05-07 11:03 | 50.84739 | 7.10864 | 31215 ft | 439 kts | 305° |
| 2026-05-07 11:03 | 50.86499 | 7.06911 | 31482 ft | 439 kts | 305° |
| 2026-05-07 11:04 | 50.88251 | 7.02959 | 31771 ft | 439 kts | 305° |
| 2026-05-07 11:04 | 50.90001 | 6.98998 | 32135 ft | 438 kts | 305° |
| 2026-05-07 11:04 | 50.91750 | 6.95042 | 32500 ft | 437 kts | 305° |
| 2026-05-07 11:04 | 50.93490 | 6.91109 | 32859 ft | 435 kts | 305° |
| 2026-05-07 11:05 | 50.95223 | 6.87186 | 33188 ft | 434 kts | 305° |
| 2026-05-07 11:05 | 50.96955 | 6.83260 | 33448 ft | 434 kts | 305° |
| 2026-05-07 11:05 | 50.98661 | 6.79382 | 33718 ft | 434 kts | 305° |
| 2026-05-07 11:05 | 51.00390 | 6.75447 | 34005 ft | 434 kts | 305° |
| 2026-05-07 11:06 | 51.02134 | 6.71474 | 34293 ft | 432 kts | 305° |
| 2026-05-07 11:06 | 51.03830 | 6.67607 | 34559 ft | 431 kts | 304° |
| 2026-05-07 11:06 | 51.05563 | 6.63647 | 34798 ft | 430 kts | 304° |
| 2026-05-07 11:06 | 51.07269 | 6.59740 | 34975 ft | 431 kts | 304° |
| 2026-05-07 11:07 | 51.08961 | 6.55858 | 35147 ft | 432 kts | 304° |
| 2026-05-07 11:07 | 51.10673 | 6.51926 | 35303 ft | 434 kts | 304° |
| 2026-05-07 11:07 | 51.12391 | 6.47976 | 35495 ft | 434 kts | 304° |
| 2026-05-07 11:07 | 51.14107 | 6.44025 | 35689 ft | 434 kts | 304° |
| 2026-05-07 11:08 | 51.15818 | 6.40072 | 35890 ft | 434 kts | 304° |
| 2026-05-07 11:08 | 51.17531 | 6.36105 | 36037 ft | 435 kts | 304° |
| 2026-05-07 11:08 | 51.20942 | 6.28206 | 36056 ft | 432 kts | 304° |
| 2026-05-07 11:09 | 51.24341 | 6.20306 | 36053 ft | 432 kts | 304° |
| 2026-05-07 11:09 | 51.27731 | 6.12399 | 36051 ft | 431 kts | 303° |
| 2026-05-07 11:10 | 51.31058 | 6.04421 | 36049 ft | 431 kts | 302° |
| 2026-05-07 11:10 | 51.34328 | 5.96374 | 36050 ft | 431 kts | 302° |
| 2026-05-07 11:11 | 51.37607 | 5.88336 | 36051 ft | 431 kts | 306° |
| 2026-05-07 11:11 | 51.41628 | 5.81206 | 36050 ft | 432 kts | 313° |
| 2026-05-07 11:12 | 51.45755 | 5.74288 | 36053 ft | 432 kts | 312° |
| 2026-05-07 11:12 | 51.49897 | 5.67288 | 36050 ft | 433 kts | 312° |
| 2026-05-07 11:13 | 51.54035 | 5.60271 | 36071 ft | 433 kts | 312° |
| 2026-05-07 11:13 | 51.58174 | 5.53242 | 36070 ft | 433 kts | 312° |
| 2026-05-07 11:14 | 51.62306 | 5.46193 | 36073 ft | 433 kts | 312° |
| 2026-05-07 11:14 | 51.66439 | 5.39131 | 36073 ft | 433 kts | 312° |
| 2026-05-07 11:15 | 51.70557 | 5.32061 | 36077 ft | 433 kts | 312° |
| 2026-05-07 11:15 | 51.74679 | 5.24965 | 36077 ft | 433 kts | 312° |
| 2026-05-07 11:16 | 51.78770 | 5.17919 | 36074 ft | 433 kts | 311° |
| 2026-05-07 11:16 | 51.82886 | 5.10811 | 36075 ft | 433 kts | 311° |
| 2026-05-07 11:17 | 51.86991 | 5.03690 | 36075 ft | 433 kts | 311° |
| 2026-05-07 11:17 | 51.91090 | 4.96545 | 36068 ft | 433 kts | 311° |
| 2026-05-07 11:18 | 51.95190 | 4.89394 | 36077 ft | 433 kts | 311° |
| 2026-05-07 11:18 | 51.99299 | 4.82227 | 36080 ft | 434 kts | 311° |
| 2026-05-07 11:19 | 52.03399 | 4.75040 | 36085 ft | 434 kts | 311° |
| 2026-05-07 11:19 | 52.07494 | 4.67828 | 36082 ft | 434 kts | 311° |
| 2026-05-07 11:20 | 52.11555 | 4.60659 | 36082 ft | 434 kts | 311° |
| 2026-05-07 11:20 | 52.15645 | 4.53432 | 36081 ft | 434 kts | 311° |
| 2026-05-07 11:21 | 52.19723 | 4.46202 | 36090 ft | 433 kts | 311° |
| 2026-05-07 11:21 | 52.23795 | 4.38950 | 36088 ft | 434 kts | 311° |
| 2026-05-07 11:22 | 52.27868 | 4.31678 | 36096 ft | 434 kts | 311° |
| 2026-05-07 11:22 | 52.31938 | 4.24399 | 36106 ft | 434 kts | 311° |
| 2026-05-07 11:23 | 52.36002 | 4.17104 | 36102 ft | 433 kts | 311° |
| 2026-05-07 11:23 | 52.40030 | 4.09850 | 36100 ft | 434 kts | 311° |
| 2026-05-07 11:24 | 52.44085 | 4.02519 | 36109 ft | 434 kts | 311° |
| 2026-05-07 11:24 | 52.48135 | 3.95177 | 36108 ft | 434 kts | 312° |
| 2026-05-07 11:25 | 52.52188 | 3.87813 | 36095 ft | 435 kts | 312° |
| 2026-05-07 11:25 | 52.56248 | 3.80425 | 36101 ft | 436 kts | 312° |
| 2026-05-07 11:26 | 52.60303 | 3.73009 | 36114 ft | 436 kts | 312° |
| 2026-05-07 11:26 | 52.64352 | 3.65581 | 36104 ft | 436 kts | 312° |
| 2026-05-07 11:27 | 52.68401 | 3.58142 | 36102 ft | 436 kts | 311° |
| 2026-05-07 11:27 | 52.72442 | 3.50689 | 36100 ft | 436 kts | 312° |
| 2026-05-07 11:28 | 52.76489 | 3.43200 | 36099 ft | 438 kts | 312° |
| 2026-05-07 11:28 | 52.80514 | 3.35725 | 36104 ft | 438 kts | 312° |
| 2026-05-07 11:29 | 52.84571 | 3.28188 | 36121 ft | 439 kts | 312° |
| 2026-05-07 11:29 | 52.88616 | 3.20619 | 36121 ft | 439 kts | 311° |
| 2026-05-07 11:30 | 52.91804 | 3.12041 | 36109 ft | 440 kts | 292° |
| 2026-05-07 11:30 | 52.93379 | 3.02258 | 36110 ft | 440 kts | 282° |
| 2026-05-07 11:31 | 52.94673 | 2.92390 | 36115 ft | 441 kts | 283° |
| 2026-05-07 11:31 | 52.95977 | 2.82456 | 36117 ft | 441 kts | 282° |
| 2026-05-07 11:32 | 52.97913 | 2.67462 | 36115 ft | 441 kts | 282° |
| 2026-05-07 11:33 | 52.99183 | 2.57562 | 36125 ft | 441 kts | 282° |
| 2026-05-07 11:33 | 53.00466 | 2.47593 | 36123 ft | 441 kts | 282° |
| 2026-05-07 11:34 | 53.01729 | 2.37628 | 36123 ft | 441 kts | 282° |
| 2026-05-07 11:34 | 53.02976 | 2.27644 | 36128 ft | 441 kts | 282° |
| 2026-05-07 11:35 | 53.04217 | 2.17662 | 36132 ft | 441 kts | 282° |
| 2026-05-07 11:35 | 53.05443 | 2.07674 | 36129 ft | 441 kts | 282° |
| 2026-05-07 11:36 | 53.06664 | 1.97757 | 36129 ft | 441 kts | 282° |
| 2026-05-07 11:36 | 53.07901 | 1.87775 | 36132 ft | 441 kts | 282° |
| 2026-05-07 11:37 | 53.09123 | 1.77778 | 36120 ft | 441 kts | 281° |
| 2026-05-07 11:37 | 53.10324 | 1.67775 | 36118 ft | 441 kts | 281° |
| 2026-05-07 11:38 | 53.11517 | 1.57761 | 36113 ft | 441 kts | 281° |
| 2026-05-07 11:38 | 53.12701 | 1.47739 | 36107 ft | 441 kts | 281° |
| 2026-05-07 11:39 | 53.13882 | 1.37719 | 36107 ft | 441 kts | 281° |
| 2026-05-07 11:39 | 53.15052 | 1.27684 | 36110 ft | 441 kts | 281° |
| 2026-05-07 11:40 | 53.16202 | 1.17705 | 36104 ft | 441 kts | 281° |
| 2026-05-07 11:40 | 53.17351 | 1.07658 | 36105 ft | 441 kts | 281° |
| 2026-05-07 11:41 | 53.18498 | 0.97597 | 36097 ft | 442 kts | 281° |
| 2026-05-07 11:41 | 53.19637 | 0.87536 | 36097 ft | 442 kts | 280° |
| 2026-05-07 11:42 | 53.20768 | 0.77455 | 36093 ft | 442 kts | 280° |
| 2026-05-07 11:42 | 53.21700 | 0.69085 | 36093 ft | 442 kts | 280° |
| 2026-05-07 11:43 | 53.22810 | 0.58993 | 36092 ft | 442 kts | 280° |
| 2026-05-07 11:43 | 53.23910 | 0.48900 | 36082 ft | 442 kts | 280° |
| 2026-05-07 11:44 | 53.25008 | 0.38805 | 36084 ft | 442 kts | 280° |
| 2026-05-07 11:44 | 53.26106 | 0.28691 | 36082 ft | 443 kts | 279° |
| 2026-05-07 11:45 | 53.27188 | 0.18566 | 36073 ft | 443 kts | 279° |
| 2026-05-07 11:45 | 53.28258 | 0.08449 | 36080 ft | 442 kts | 279° |
| 2026-05-07 11:46 | 53.29318 | -0.01606 | 36090 ft | 442 kts | 279° |
| 2026-05-07 11:46 | 53.30370 | -0.11729 | 36094 ft | 442 kts | 279° |
| 2026-05-07 11:47 | 53.31412 | -0.21845 | 36094 ft | 441 kts | 279° |
| 2026-05-07 11:47 | 53.32443 | -0.31966 | 36090 ft | 441 kts | 278° |
| 2026-05-07 11:48 | 53.33467 | -0.42091 | 36082 ft | 441 kts | 279° |
| 2026-05-07 11:48 | 53.34493 | -0.52214 | 36086 ft | 441 kts | 279° |
| 2026-05-07 11:49 | 53.35504 | -0.62344 | 36087 ft | 441 kts | 278° |
| 2026-05-07 11:49 | 53.36504 | -0.72481 | 36082 ft | 441 kts | 278° |
| 2026-05-07 11:50 | 53.37495 | -0.82621 | 36086 ft | 441 kts | 278° |
| 2026-05-07 11:50 | 53.38475 | -0.92706 | 36085 ft | 441 kts | 278° |
| 2026-05-07 11:51 | 53.39446 | -1.02850 | 36085 ft | 441 kts | 278° |
| 2026-05-07 11:51 | 53.40411 | -1.13008 | 36086 ft | 441 kts | 278° |
| 2026-05-07 11:52 | 53.41361 | -1.23162 | 36081 ft | 441 kts | 277° |
| 2026-05-07 11:52 | 53.42312 | -1.33329 | 36076 ft | 441 kts | 278° |
| 2026-05-07 11:53 | 53.43265 | -1.43496 | 36082 ft | 441 kts | 277° |
| 2026-05-07 11:53 | 53.44199 | -1.53670 | 36075 ft | 441 kts | 277° |
| 2026-05-07 11:54 | 53.45118 | -1.63865 | 36076 ft | 442 kts | 277° |
| 2026-05-07 11:54 | 53.46032 | -1.74040 | 36072 ft | 441 kts | 277° |
| 2026-05-07 11:55 | 53.46934 | -1.84180 | 36068 ft | 442 kts | 277° |
| 2026-05-07 11:55 | 53.47832 | -1.94384 | 36065 ft | 441 kts | 277° |
| 2026-05-07 11:56 | 53.48722 | -2.04577 | 36069 ft | 441 kts | 277° |
| 2026-05-07 11:56 | 53.49604 | -2.14782 | 36064 ft | 441 kts | 277° |
| 2026-05-07 11:57 | 53.50477 | -2.24979 | 36065 ft | 441 kts | 277° |
| 2026-05-07 11:57 | 53.51342 | -2.35195 | 36061 ft | 441 kts | 276° |
| 2026-05-07 11:58 | 53.52197 | -2.45411 | 36057 ft | 441 kts | 276° |
| 2026-05-07 11:58 | 53.53040 | -2.55623 | 36052 ft | 441 kts | 276° |
| 2026-05-07 11:59 | 53.53876 | -2.65829 | 36057 ft | 441 kts | 276° |
| 2026-05-07 11:59 | 53.54693 | -2.75989 | 36044 ft | 441 kts | 276° |
| 2026-05-07 12:00 | 53.55513 | -2.86220 | 36054 ft | 441 kts | 276° |
| 2026-05-07 12:00 | 53.56320 | -2.96459 | 36051 ft | 441 kts | 275° |
| 2026-05-07 12:01 | 53.57117 | -3.06690 | 36052 ft | 441 kts | 276° |
| 2026-05-07 12:01 | 53.57911 | -3.16926 | 36066 ft | 441 kts | 276° |
| 2026-05-07 12:02 | 53.58698 | -3.27160 | 36038 ft | 441 kts | 276° |
| 2026-05-07 12:02 | 53.59474 | -3.37390 | 36036 ft | 440 kts | 275° |
| 2026-05-07 12:03 | 53.60239 | -3.47618 | 36031 ft | 440 kts | 275° |
| 2026-05-07 12:03 | 53.60984 | -3.57784 | 36029 ft | 440 kts | 275° |
| 2026-05-07 12:03 | 53.61363 | -3.62904 | 35783 ft | 441 kts | 277° |
| 2026-05-07 12:04 | 53.62049 | -3.67939 | 35543 ft | 442 kts | 287° |
| 2026-05-07 12:04 | 53.63154 | -3.72785 | 35293 ft | 443 kts | 290° |
| 2026-05-07 12:04 | 53.64316 | -3.77589 | 35042 ft | 442 kts | 290° |
| 2026-05-07 12:04 | 53.65469 | -3.82384 | 34793 ft | 441 kts | 290° |
| 2026-05-07 12:05 | 53.66609 | -3.87161 | 34335 ft | 437 kts | 290° |
| 2026-05-07 12:05 | 53.67737 | -3.91913 | 33794 ft | 436 kts | 290° |
| 2026-05-07 12:05 | 53.68856 | -3.96645 | 33273 ft | 432 kts | 289° |
| 2026-05-07 12:05 | 53.69963 | -4.01327 | 32776 ft | 428 kts | 289° |
| 2026-05-07 12:06 | 53.71022 | -4.05991 | 32284 ft | 423 kts | 285° |
| 2026-05-07 12:06 | 53.71695 | -4.10779 | 31796 ft | 417 kts | 275° |
| 2026-05-07 12:06 | 53.71949 | -4.15619 | 31316 ft | 411 kts | 271° |
| 2026-05-07 12:06 | 53.72127 | -4.20421 | 30853 ft | 408 kts | 270° |
| 2026-05-07 12:07 | 53.72303 | -4.25185 | 30387 ft | 405 kts | 271° |
| 2026-05-07 12:07 | 53.72478 | -4.29912 | 29919 ft | 402 kts | 270° |
| 2026-05-07 12:07 | 53.72649 | -4.34597 | 29452 ft | 398 kts | 270° |
| 2026-05-07 12:07 | 53.72820 | -4.39233 | 29013 ft | 393 kts | 270° |
| 2026-05-07 12:08 | 53.72991 | -4.43809 | 28580 ft | 389 kts | 270° |
| 2026-05-07 12:08 | 53.73157 | -4.48344 | 28152 ft | 385 kts | 270° |
| 2026-05-07 12:08 | 53.73319 | -4.52831 | 27725 ft | 381 kts | 270° |
| 2026-05-07 12:08 | 53.73477 | -4.57277 | 27303 ft | 378 kts | 270° |
| 2026-05-07 12:09 | 53.73632 | -4.61683 | 26865 ft | 374 kts | 270° |
| 2026-05-07 12:09 | 53.73779 | -4.66002 | 26448 ft | 371 kts | 270° |
| 2026-05-07 12:09 | 53.73925 | -4.70338 | 26014 ft | 369 kts | 270° |
| 2026-05-07 12:09 | 53.74066 | -4.74649 | 25562 ft | 367 kts | 270° |
| 2026-05-07 12:10 | 53.74204 | -4.78935 | 25116 ft | 365 kts | 270° |
| 2026-05-07 12:10 | 53.74342 | -4.83207 | 24660 ft | 363 kts | 270° |
| 2026-05-07 12:10 | 53.74480 | -4.87455 | 24195 ft | 362 kts | 270° |
| 2026-05-07 12:10 | 53.74618 | -4.91688 | 23739 ft | 361 kts | 270° |
| 2026-05-07 12:11 | 53.74755 | -4.95917 | 23219 ft | 359 kts | 270° |
| 2026-05-07 12:11 | 53.74889 | -5.00114 | 22760 ft | 356 kts | 270° |
| 2026-05-07 12:11 | 53.75020 | -5.04283 | 22295 ft | 354 kts | 270° |
| 2026-05-07 12:11 | 53.75150 | -5.08415 | 21844 ft | 351 kts | 270° |
| 2026-05-07 12:12 | 53.75204 | -5.12514 | 21400 ft | 347 kts | 263° |
| 2026-05-07 12:12 | 53.74807 | -5.16485 | 20962 ft | 341 kts | 251° |
| 2026-05-07 12:12 | 53.74054 | -5.20258 | 20539 ft | 337 kts | 249° |
| 2026-05-07 12:12 | 53.73291 | -5.23998 | 20101 ft | 336 kts | 249° |
| 2026-05-07 12:13 | 53.72538 | -5.27717 | 19689 ft | 334 kts | 249° |
| 2026-05-07 12:13 | 53.71792 | -5.31415 | 19267 ft | 332 kts | 249° |
| 2026-05-07 12:13 | 53.71058 | -5.35049 | 18851 ft | 331 kts | 249° |
| 2026-05-07 12:13 | 53.70315 | -5.38709 | 18441 ft | 329 kts | 249° |
| 2026-05-07 12:14 | 53.69571 | -5.42357 | 18001 ft | 328 kts | 249° |
| 2026-05-07 12:14 | 53.68831 | -5.45980 | 17577 ft | 325 kts | 249° |
| 2026-05-07 12:14 | 53.68102 | -5.49575 | 17172 ft | 323 kts | 251° |
| 2026-05-07 12:14 | 53.67581 | -5.53254 | 16774 ft | 321 kts | 255° |
| 2026-05-07 12:15 | 53.67104 | -5.56926 | 16376 ft | 319 kts | 255° |
| 2026-05-07 12:15 | 53.66631 | -5.60564 | 15983 ft | 317 kts | 255° |
| 2026-05-07 12:15 | 53.66157 | -5.64197 | 15588 ft | 315 kts | 255° |
| 2026-05-07 12:15 | 53.65683 | -5.67801 | 15203 ft | 314 kts | 255° |
| 2026-05-07 12:16 | 53.65211 | -5.71380 | 14821 ft | 312 kts | 255° |
| 2026-05-07 12:16 | 53.64742 | -5.74942 | 14441 ft | 311 kts | 255° |
| 2026-05-07 12:16 | 53.64279 | -5.78447 | 14066 ft | 310 kts | 255° |
| 2026-05-07 12:16 | 53.63811 | -5.81978 | 13673 ft | 308 kts | 255° |
| 2026-05-07 12:17 | 53.63343 | -5.85494 | 13262 ft | 306 kts | 255° |
| 2026-05-07 12:17 | 53.62878 | -5.88981 | 12878 ft | 304 kts | 255° |
| 2026-05-07 12:17 | 53.62419 | -5.92435 | 12514 ft | 301 kts | 255° |
| 2026-05-07 12:17 | 53.61962 | -5.95871 | 12120 ft | 299 kts | 255° |
| 2026-05-07 12:18 | 53.61504 | -5.99281 | 11739 ft | 297 kts | 255° |
| 2026-05-07 12:18 | 53.61051 | -6.02658 | 11348 ft | 295 kts | 255° |
| 2026-05-07 12:18 | 53.60597 | -6.06016 | 10957 ft | 293 kts | 255° |
| 2026-05-07 12:18 | 53.60141 | -6.09362 | 10574 ft | 292 kts | 255° |
| 2026-05-07 12:19 | 53.59690 | -6.12659 | 10355 ft | 284 kts | 255° |
| 2026-05-07 12:19 | 53.59254 | -6.15863 | 10078 ft | 280 kts | 255° |
| 2026-05-07 12:19 | 53.58822 | -6.19046 | 9700 ft | 278 kts | 255° |
| 2026-05-07 12:19 | 53.58389 | -6.22215 | 9303 ft | 277 kts | 255° |
| 2026-05-07 12:20 | 53.57956 | -6.25355 | 8903 ft | 275 kts | 255° |
| 2026-05-07 12:20 | 53.57525 | -6.28478 | 8516 ft | 272 kts | 255° |
| 2026-05-07 12:20 | 53.57129 | -6.31526 | 8381 ft | 264 kts | 258° |
| 2026-05-07 12:20 | 53.56837 | -6.34616 | 8195 ft | 269 kts | 259° |
| 2026-05-07 12:21 | 53.56582 | -6.37696 | 7927 ft | 262 kts | 260° |
| 2026-05-07 12:21 | 53.56346 | -6.40702 | 7669 ft | 256 kts | 260° |
| 2026-05-07 12:21 | 53.56120 | -6.43596 | 7416 ft | 250 kts | 259° |
| 2026-05-07 12:21 | 53.55892 | -6.46455 | 7164 ft | 244 kts | 260° |
| 2026-05-07 12:22 | 53.55665 | -6.49252 | 6905 ft | 239 kts | 259° |
| 2026-05-07 12:22 | 53.55440 | -6.51988 | 6660 ft | 234 kts | 258° |
| 2026-05-07 12:22 | 53.55217 | -6.54676 | 6414 ft | 231 kts | 259° |
| 2026-05-07 12:22 | 53.54995 | -6.57348 | 6151 ft | 230 kts | 259° |
| 2026-05-07 12:23 | 53.54773 | -6.60009 | 5880 ft | 229 kts | 259° |
| 2026-05-07 12:23 | 53.54421 | -6.62588 | 5627 ft | 224 kts | 244° |
| 2026-05-07 12:23 | 53.53610 | -6.64806 | 5366 ft | 222 kts | 226° |
| 2026-05-07 12:23 | 53.52426 | -6.66419 | 5109 ft | 220 kts | 208° |
| 2026-05-07 12:24 | 53.51006 | -6.67296 | 4848 ft | 216 kts | 190° |
| 2026-05-07 12:24 | 53.49525 | -6.67559 | 4589 ft | 213 kts | 186° |
| 2026-05-07 12:24 | 53.48067 | -6.67783 | 4329 ft | 208 kts | 185° |
| 2026-05-07 12:24 | 53.46667 | -6.67396 | 4073 ft | 207 kts | 151° |
| 2026-05-07 12:25 | 53.45766 | -6.65603 | 3978 ft | 203 kts | 111° |
| 2026-05-07 12:25 | 53.45570 | -6.63317 | 3982 ft | 195 kts | 99° |
| 2026-05-07 12:25 | 53.45462 | -6.61058 | 4035 ft | 193 kts | 99° |
| 2026-05-07 12:25 | 53.45348 | -6.58801 | 3863 ft | 194 kts | 99° |
| 2026-05-07 12:26 | 53.45233 | -6.56559 | 3616 ft | 192 kts | 99° |
| 2026-05-07 12:26 | 53.45118 | -6.54345 | 3366 ft | 189 kts | 99° |
| 2026-05-07 12:26 | 53.45005 | -6.52178 | 3117 ft | 185 kts | 99° |
| 2026-05-07 12:26 | 53.44893 | -6.50047 | 2861 ft | 183 kts | 99° |
| 2026-05-07 12:27 | 53.44781 | -6.47939 | 2612 ft | 181 kts | 99° |
| 2026-05-07 12:27 | 53.44670 | -6.45835 | 2371 ft | 181 kts | 100° |
| 2026-05-07 12:27 | 53.44559 | -6.43742 | 2117 ft | 178 kts | 100° |
| 2026-05-07 12:27 | 53.44454 | -6.41739 | 1874 ft | 166 kts | 101° |
| 2026-05-07 12:28 | 53.44358 | -6.39923 | 1681 ft | 152 kts | 101° |
| 2026-05-07 12:28 | 53.44265 | -6.38205 | 1471 ft | 146 kts | 102° |
| 2026-05-07 12:28 | 53.44173 | -6.36518 | 1269 ft | 145 kts | 99° |
| 2026-05-07 12:28 | 53.44083 | -6.34840 | 1073 ft | 145 kts | 99° |
| 2026-05-07 12:29 | 53.43994 | -6.33189 | 874 ft | 140 kts | 98° |
| 2026-05-07 12:29 | 53.43905 | -6.31571 | 700 ft | 139 kts | 100° |
| 2026-05-07 12:29 | 53.43826 | -6.29987 | 522 ft | 135 kts | 98° |
| 2026-05-07 12:29 | 53.43736 | -6.28371 | 330 ft | 140 kts | 96° |
| 2026-05-07 12:30 | 53.43653 | -6.26824 | 214 ft | 122 kts | 97° |
| 2026-05-07 12:30 | 53.43584 | -6.25694 | 209 ft | 65 kts | 95° |
| 2026-05-07 12:30 | 53.43521 | -6.25216 | 213 ft | 35 kts | 117° |
| 2026-05-07 12:30 | 53.43424 | -6.24992 | 211 ft | 13 kts | 172° |
| 2026-05-07 12:31 | 53.43382 | -6.25081 | 211 ft | 10 kts | 274° |
| 2026-05-07 12:31 | 53.43387 | -6.25187 | 219 ft | 9 kts | 274° |
| 2026-05-07 12:31 | 53.43393 | -6.25297 | 211 ft | 13 kts | 276° |
| 2026-05-07 12:31 | 53.43405 | -6.25489 | 211 ft | 14 kts | 274° |
| 2026-05-07 12:32 | 53.43397 | -6.25634 | 214 ft | 12 kts | 230° |
| 2026-05-07 12:32 | 53.43326 | -6.25630 | 215 ft | 11 kts | 156° |
| 2026-05-07 12:32 | 53.43236 | -6.25562 | 211 ft | 18 kts | 156° |
| 2026-05-07 12:32 | 53.43113 | -6.25474 | 215 ft | 20 kts | 157° |
| 2026-05-07 12:33 | 53.42890 | -6.25311 | 215 ft | 9 kts | 157° |
| 2026-05-07 12:33 | 53.42825 | -6.25264 | 211 ft | 11 kts | 156° |
| 2026-05-07 12:33 | 53.42746 | -6.25206 | 214 ft | 15 kts | 153° |
| 2026-05-07 12:34 | 53.42681 | -6.25094 | 211 ft | 13 kts | 149° |
| 2026-05-07 12:34 | 53.42593 | -6.25030 | 211 ft | 15 kts | 156° |
| 2026-05-07 12:34 | 53.42493 | -6.24956 | 216 ft | 17 kts | 156° |
| 2026-05-07 12:34 | 53.42384 | -6.24877 | 211 ft | 17 kts | 156° |
| 2026-05-07 12:35 | 53.42292 | -6.24811 | 211 ft | 14 kts | 156° |
| 2026-05-07 12:35 | 53.42205 | -6.24745 | 216 ft | 13 kts | 149° |
| 2026-05-07 12:35 | 53.42173 | -6.24599 | 211 ft | 15 kts | 96° |
| 2026-05-07 12:35 | 53.42164 | -6.24417 | 211 ft | 17 kts | 95° |
| 2026-05-07 12:36 | 53.42163 | -6.24263 | 211 ft | 12 kts | 72° |
| 2026-05-07 12:36 | 53.42215 | -6.24167 | 211 ft | 10 kts | 41° |
| 2026-05-07 12:36 | 53.42248 | -6.24113 | 211 ft | 9 kts | 53° |
| 2026-05-07 12:36 | 53.42255 | -6.24017 | 211 ft | 9 kts | 109° |
| 2026-05-07 12:37 | 53.42225 | -6.23914 | 213 ft | 11 kts | 116° |
| 2026-05-07 12:37 | 53.42183 | -6.23796 | 211 ft | 13 kts | 128° |
| 2026-05-07 12:37 | 53.42148 | -6.23712 | 211 ft | 8 kts | 118° |
| 2026-05-07 12:37 | 53.42135 | -6.23650 | 219 ft | 6 kts | 81° |
| 2026-05-07 12:38 | 53.42153 | -6.23628 | 211 ft | 2 kts | 27° |
| 2026-05-07 12:38 | 53.42163 | -6.23620 | 211 ft | 1 kts | 26° |
| 2026-05-07 12:38 | 53.42168 | -6.23616 | 211 ft | 0 kts | 26° |